Time;durP1;ratioP1;P1;durP2;ratioP2;P2;SDS_P1;SDS_P2;PMS_P1;PMS_P2;Temp;Humidity;BMP_temperature;BMP_pressure;BME280_temperature;BME280_humidity;BME280_pressure;Samples;Min_cycle;Max_cycle;Signal;HPM_P1;HPM_P2
2024/02/17 00:00:10;;;;;;;0.90;0.82;;;;;;;;;;1266406;23;20002;-76
2024/02/17 00:00:42;;;;;;;1.55;0.98;;;;;;;;;;1265693;23;20006;-76
2024/02/17 00:01:12;;;;;;;0.40;0.40;;;;;;;;;;1265677;23;20329;-76
2024/02/17 00:01:43;;;;;;;0.50;0.50;;;;;;;;;;1265472;23;20012;-76
2024/02/17 00:02:13;;;;;;;1.25;1.05;;;;;;;;;;1265309;23;20002;-76
2024/02/17 00:02:44;;;;;;;0.77;0.77;;;;;;;;;;1265132;23;20446;-76
2024/02/17 00:03:17;;;;;;;1.17;1.10;;;;;;;;;;1264682;23;20044;-75
2024/02/17 00:03:47;;;;;;;0.38;0.38;;;;;;;;;;1258869;23;20015;-76
2024/02/17 00:04:18;;;;;;;0.55;0.55;;;;;;;;;;1259478;23;20013;-76
2024/02/17 00:04:49;;;;;;;2.50;2.30;;;;;;;;;;1265124;23;20097;-76
2024/02/17 00:05:19;;;;;;;0.75;0.75;;;;;;;;;;1264831;23;20346;-76
2024/02/17 00:05:50;;;;;;;3.95;3.65;;;;;;;;;;1265168;23;20002;-76
2024/02/17 00:06:20;;;;;;;0.35;0.35;;;;;;;;;;1265142;23;20010;-76
2024/02/17 00:06:51;;;;;;;1.33;1.27;;;;;;;;;;1265469;23;20008;-76
2024/02/17 00:07:21;;;;;;;0.82;0.82;;;;;;;;;;1264963;23;20012;-76
2024/02/17 00:07:52;;;;;;;0.28;0.28;;;;;;;;;;1264884;23;20080;-76
2024/02/17 00:08:23;;;;;;;1.45;1.38;;;;;;;;;;1264879;23;20002;-76
2024/02/17 00:08:53;;;;;;;0.30;0.30;;;;;;;;;;1265022;23;20069;-76
2024/02/17 00:09:24;;;;;;;0.22;0.22;;;;;;;;;;1264683;23;20490;-76
2024/02/17 00:09:54;;;;;;;2.58;1.58;;;;;;;;;;1264991;23;20052;-76
2024/02/17 00:10:25;;;;;;;0.20;0.20;;;;;;;;;;1264892;23;20463;-75
2024/02/17 00:10:55;;;;;;;0.30;0.30;;;;;;;;;;1265417;23;20357;-76
2024/02/17 00:11:26;;;;;;;0.95;0.95;;;;;;;;;;1265100;23;20346;-76
2024/02/17 00:11:56;;;;;;;0.98;0.45;;;;;;;;;;1265374;23;20010;-76
2024/02/17 00:12:27;;;;;;;3.10;2.92;;;;;;;;;;1265270;23;20006;-76
2024/02/17 00:12:57;;;;;;;1.42;0.85;;;;;;;;;;1265415;23;20093;-76
2024/02/17 00:13:28;;;;;;;0.50;0.50;;;;;;;;;;1264761;23;20069;-76
2024/02/17 00:13:58;;;;;;;0.55;0.52;;;;;;;;;;1264844;23;20424;-76
2024/02/17 00:14:28;;;;;;;1.17;1.15;;;;;;;;;;1264795;23;20422;-76
2024/02/17 00:14:59;;;;;;;0.63;0.63;;;;;;;;;;1264658;23;20010;-76
2024/02/17 00:15:30;;;;;;;2.38;2.17;;;;;;;;;;1265131;23;20383;-76
2024/02/17 00:16:00;;;;;;;0.25;0.25;;;;;;;;;;1265266;23;20374;-76
2024/02/17 00:16:31;;;;;;;1.13;0.60;;;;;;;;;;1264851;23;20332;-76
2024/02/17 00:17:02;;;;;;;0.30;0.30;;;;;;;;;;1264775;23;20092;-76
2024/02/17 00:17:32;;;;;;;1.27;0.98;;;;;;;;;;1264845;23;20005;-76
2024/02/17 00:18:05;;;;;;;1.17;1.13;;;;;;;;;;1265117;23;20010;-76
2024/02/17 00:18:36;;;;;;;1.23;1.13;;;;;;;;;;1265337;23;20446;-76
2024/02/17 00:19:12;;;;;;;0.38;0.38;;;;;;;;;;1264724;23;20435;-76
2024/02/17 00:19:42;;;;;;;0.52;0.52;;;;;;;;;;1265009;23;20553;-76
2024/02/17 00:20:14;;;;;;;0.35;0.20;;;;;;;;;;1264690;23;20024;-76
2024/02/17 00:20:45;;;;;;;0.95;0.90;;;;;;;;;;1265068;23;20025;-76
2024/02/17 00:21:15;;;;;;;1.08;0.82;;;;;;;;;;1264711;23;20046;-76
2024/02/17 00:21:46;;;;;;;1.20;0.95;;;;;;;;;;1265003;23;20485;-76
2024/02/17 00:22:16;;;;;;;1.33;1.23;;;;;;;;;;1264766;23;20142;-76
2024/02/17 00:22:47;;;;;;;0.20;0.20;;;;;;;;;;1264902;23;20599;-77
2024/02/17 00:23:19;;;;;;;3.20;2.47;;;;;;;;;;1258572;23;20093;-76
2024/02/17 00:23:49;;;;;;;0.50;0.50;;;;;;;;;;1258985;23;20017;-76
2024/02/17 00:24:19;;;;;;;3.03;1.75;;;;;;;;;;1259101;23;20011;-76
2024/02/17 00:24:50;;;;;;;4.90;1.48;;;;;;;;;;1265023;23;20006;-76
2024/02/17 00:25:21;;;;;;;0.25;0.25;;;;;;;;;;1265032;23;19998;-76
2024/02/17 00:25:51;;;;;;;3.60;2.67;;;;;;;;;;1265383;23;20013;-76
2024/02/17 00:26:22;;;;;;;5.47;1.85;;;;;;;;;;1264686;23;20353;-76
2024/02/17 00:26:52;;;;;;;0.22;0.22;;;;;;;;;;1265185;23;20026;-76
2024/02/17 00:27:23;;;;;;;0.90;0.80;;;;;;;;;;1264684;23;20438;-76
2024/02/17 00:27:53;;;;;;;5.50;2.58;;;;;;;;;;1264797;23;20070;-76
2024/02/17 00:28:26;;;;;;;3.03;2.80;;;;;;;;;;1258685;23;20013;-75
2024/02/17 00:29:00;;;;;;;0.32;0.32;;;;;;;;;;1258956;23;20007;-76
2024/02/17 00:29:30;;;;;;;0.65;0.60;;;;;;;;;;1260000;23;20010;-76
2024/02/17 00:30:01;;;;;;;5.28;1.77;;;;;;;;;;1264894;23;20411;-76
2024/02/17 00:30:32;;;;;;;10.25;2.67;;;;;;;;;;1265768;23;20088;-76
2024/02/17 00:31:02;;;;;;;0.65;0.65;;;;;;;;;;1264955;23;20347;-76
2024/02/17 00:31:33;;;;;;;3.38;0.65;;;;;;;;;;1264735;23;20051;-76
2024/02/17 00:32:03;;;;;;;0.63;0.63;;;;;;;;;;1264669;23;20006;-76
2024/02/17 00:32:34;;;;;;;4.78;4.47;;;;;;;;;;1258987;23;20037;-76
2024/02/17 00:33:05;;;;;;;0.40;0.40;;;;;;;;;;1265021;23;20002;-76
2024/02/17 00:33:37;;;;;;;1.45;0.98;;;;;;;;;;1258594;23;19999;-76
2024/02/17 00:34:07;;;;;;;0.20;0.20;;;;;;;;;;1259349;23;20041;-76
2024/02/17 00:34:38;;;;;;;0.88;0.88;;;;;;;;;;1264947;23;20002;-76
2024/02/17 00:35:10;;;;;;;0.65;0.65;;;;;;;;;;1264864;23;19994;-76
2024/02/17 00:35:41;;;;;;;0.43;0.43;;;;;;;;;;1258827;23;20359;-76
2024/02/17 00:36:12;;;;;;;3.03;2.05;;;;;;;;;;1258769;23;20081;-76
2024/02/17 00:36:44;;;;;;;0.40;0.40;;;;;;;;;;1259119;23;20004;-75
2024/02/17 00:37:15;;;;;;;0.63;0.63;;;;;;;;;;1258932;23;20030;-76
2024/02/17 00:37:45;;;;;;;1.83;1.73;;;;;;;;;;1258960;23;20011;-76
2024/02/17 00:38:17;;;;;;;0.68;0.68;;;;;;;;;;1258863;23;20026;-76
2024/02/17 00:38:48;;;;;;;1.75;1.27;;;;;;;;;;1265178;23;20020;-76
2024/02/17 00:39:18;;;;;;;1.25;1.23;;;;;;;;;;1265076;23;20358;-76
2024/02/17 00:39:49;;;;;;;1.13;0.82;;;;;;;;;;1258826;23;20477;-76
2024/02/17 00:40:19;;;;;;;0.20;0.20;;;;;;;;;;1258870;23;20517;-76
2024/02/17 00:40:50;;;;;;;1.42;1.33;;;;;;;;;;1258983;23;20378;-76
2024/02/17 00:41:21;;;;;;;2.90;1.30;;;;;;;;;;1258883;23;20053;-76
2024/02/17 00:41:51;;;;;;;0.40;0.40;;;;;;;;;;1271426;23;20334;-76
2024/02/17 00:42:21;;;;;;;0.60;0.60;;;;;;;;;;1271147;23;20009;-76
2024/02/17 00:42:52;;;;;;;0.20;0.20;;;;;;;;;;1265074;23;20021;-76
2024/02/17 00:43:23;;;;;;;2.67;1.38;;;;;;;;;;1258603;23;20358;-76
2024/02/17 00:43:53;;;;;;;0.47;0.47;;;;;;;;;;1258801;23;20386;-76
2024/02/17 00:44:24;;;;;;;0.20;0.20;;;;;;;;;;1252820;23;20008;-76
2024/02/17 00:44:54;;;;;;;0.20;0.20;;;;;;;;;;1259143;23;20431;-76
2024/02/17 00:45:25;;;;;;;13.38;2.28;;;;;;;;;;1258503;23;20014;-76
2024/02/17 00:45:56;;;;;;;0.30;0.30;;;;;;;;;;1259219;23;20086;-76
2024/02/17 00:46:26;;;;;;;0.40;0.40;;;;;;;;;;1258673;23;20076;-76
2024/02/17 00:46:57;;;;;;;0.93;0.90;;;;;;;;;;1259178;23;20089;-76
2024/02/17 00:47:27;;;;;;;0.40;0.40;;;;;;;;;;1258484;23;20006;-76
2024/02/17 00:47:58;;;;;;;1.05;0.93;;;;;;;;;;1252848;23;20010;-76
2024/02/17 00:48:28;;;;;;;0.13;0.13;;;;;;;;;;1258733;23;20003;-76
2024/02/17 00:48:59;;;;;;;2.75;2.58;;;;;;;;;;1259115;23;20007;-76
2024/02/17 00:49:29;;;;;;;0.43;0.43;;;;;;;;;;1258837;23;20037;-76
2024/02/17 00:50:00;;;;;;;2.13;2.03;;;;;;;;;;1264819;23;19998;-76
2024/02/17 00:50:30;;;;;;;6.07;1.20;;;;;;;;;;1264971;23;20030;-76
2024/02/17 00:51:00;;;;;;;0.47;0.47;;;;;;;;;;1265049;23;20088;-76
2024/02/17 00:51:31;;;;;;;0.60;0.57;;;;;;;;;;1271310;22;20012;-76
2024/02/17 00:52:01;;;;;;;0.30;0.30;;;;;;;;;;1271186;22;20005;-76
2024/02/17 00:52:32;;;;;;;2.22;2.13;;;;;;;;;;1271418;22;20005;-76
2024/02/17 00:53:02;;;;;;;1.38;1.30;;;;;;;;;;1271363;23;20080;-76
2024/02/17 00:53:33;;;;;;;1.80;1.70;;;;;;;;;;1271182;23;20011;-76
2024/02/17 00:54:03;;;;;;;0.35;0.35;;;;;;;;;;1264733;23;20006;-76
2024/02/17 00:54:34;;;;;;;1.10;1.10;;;;;;;;;;1264847;23;20010;-76
2024/02/17 00:55:04;;;;;;;0.22;0.22;;;;;;;;;;1265026;23;20037;-76
2024/02/17 00:55:35;;;;;;;0.88;0.80;;;;;;;;;;1264907;23;20097;-76
2024/02/17 00:56:05;;;;;;;1.08;1.08;;;;;;;;;;1271405;22;20544;-76
2024/02/17 00:56:36;;;;;;;0.30;0.30;;;;;;;;;;1271327;23;20435;-76
2024/02/17 00:57:07;;;;;;;2.05;1.50;;;;;;;;;;1271365;22;20309;-76
2024/02/17 00:57:37;;;;;;;0.45;0.45;;;;;;;;;;1271258;23;20104;-76
2024/02/17 00:58:08;;;;;;;0.45;0.45;;;;;;;;;;1264900;23;20006;-76
2024/02/17 00:58:39;;;;;;;1.33;0.88;;;;;;;;;;1264923;23;20389;-76
2024/02/17 00:59:09;;;;;;;2.05;1.95;;;;;;;;;;1264954;23;20081;-76
2024/02/17 00:59:40;;;;;;;0.65;0.60;;;;;;;;;;1264712;23;20442;-76
2024/02/17 01:00:10;;;;;;;3.92;2.47;;;;;;;;;;1258490;23;20006;-76
2024/02/17 01:00:41;;;;;;;0.57;0.57;;;;;;;;;;1252703;23;20003;-77
2024/02/17 01:01:11;;;;;;;1.90;1.23;;;;;;;;;;1247118;23;20082;-76
2024/02/17 01:01:43;;;;;;;0.50;0.50;;;;;;;;;;1252945;23;20006;-76
2024/02/17 01:02:13;;;;;;;0.77;0.77;;;;;;;;;;1258948;23;20002;-76
2024/02/17 01:02:44;;;;;;;0.30;0.30;;;;;;;;;;1259378;23;20003;-76
2024/02/17 01:03:14;;;;;;;1.65;1.55;;;;;;;;;;1264482;23;20006;-76
2024/02/17 01:03:45;;;;;;;0.52;0.52;;;;;;;;;;1264912;23;20032;-76
2024/02/17 01:04:15;;;;;;;1.02;1.00;;;;;;;;;;1264859;23;20100;-76
2024/02/17 01:04:46;;;;;;;1.80;1.70;;;;;;;;;;1264954;23;20307;-76
2024/02/17 01:05:16;;;;;;;2.28;2.17;;;;;;;;;;1264722;23;20458;-76
2024/02/17 01:05:47;;;;;;;1.17;0.77;;;;;;;;;;1264790;23;20013;-76
2024/02/17 01:06:17;;;;;;;1.00;1.00;;;;;;;;;;1264478;23;20002;-76
2024/02/17 01:06:48;;;;;;;1.67;1.20;;;;;;;;;;1270632;23;20001;-76
2024/02/17 01:07:19;;;;;;;0.95;0.95;;;;;;;;;;1264322;23;20100;-77
2024/02/17 01:07:50;;;;;;;0.52;0.52;;;;;;;;;;1258561;23;19994;-76
2024/02/17 01:08:20;;;;;;;4.97;2.40;;;;;;;;;;1252676;23;20030;-76
2024/02/17 01:08:51;;;;;;;0.98;0.90;;;;;;;;;;1251646;23;20454;-76
2024/02/17 01:09:22;;;;;;;0.30;0.30;;;;;;;;;;1257661;23;20007;-77
2024/02/17 01:09:56;;;;;;;1.90;1.80;;;;;;;;;;1258429;23;20093;-76
2024/02/17 01:10:26;;;;;;;0.47;0.47;;;;;;;;;;1252226;23;20409;-76
2024/02/17 01:10:57;;;;;;;0.73;0.68;;;;;;;;;;1253451;23;20003;-76
2024/02/17 01:11:27;;;;;;;0.50;0.50;;;;;;;;;;1258813;23;20006;-76
2024/02/17 01:11:58;;;;;;;0.63;0.63;;;;;;;;;;1264812;23;20040;-76
2024/02/17 01:12:28;;;;;;;0.95;0.95;;;;;;;;;;1270914;22;20091;-76
2024/02/17 01:12:59;;;;;;;1.48;1.40;;;;;;;;;;1264346;23;20036;-76
2024/02/17 01:13:29;;;;;;;1.20;1.00;;;;;;;;;;1258581;23;20013;-76
2024/02/17 01:14:00;;;;;;;1.02;1.02;;;;;;;;;;1258314;23;20006;-76
2024/02/17 01:14:30;;;;;;;0.40;0.40;;;;;;;;;;1258399;23;20101;-76
2024/02/17 01:15:01;;;;;;;0.77;0.77;;;;;;;;;;1264124;23;20010;-76
2024/02/17 01:15:31;;;;;;;0.52;0.52;;;;;;;;;;1270742;22;20467;-76
2024/02/17 01:16:02;;;;;;;0.30;0.30;;;;;;;;;;1271003;22;20009;-76
2024/02/17 01:16:33;;;;;;;0.60;0.60;;;;;;;;;;1270927;23;20493;-76
2024/02/17 01:17:03;;;;;;;1.85;1.75;;;;;;;;;;1264647;23;20006;-76
2024/02/17 01:17:34;;;;;;;1.55;1.30;;;;;;;;;;1264634;23;20002;-75
2024/02/17 01:18:04;;;;;;;1.90;1.70;;;;;;;;;;1264639;23;20010;-76
2024/02/17 01:18:35;;;;;;;1.48;0.77;;;;;;;;;;1264635;23;20418;-76
2024/02/17 01:19:06;;;;;;;0.50;0.50;;;;;;;;;;1271178;23;20016;-76
2024/02/17 01:19:36;;;;;;;1.83;1.73;;;;;;;;;;1270732;23;20009;-76
2024/02/17 01:20:07;;;;;;;2.97;2.67;;;;;;;;;;1271206;22;20364;-76
2024/02/17 01:20:37;;;;;;;0.63;0.63;;;;;;;;;;1264510;23;20010;-76
2024/02/17 01:21:08;;;;;;;1.25;1.17;;;;;;;;;;1264531;23;20329;-75
2024/02/17 01:21:38;;;;;;;1.63;1.55;;;;;;;;;;1264410;23;20029;-76
2024/02/17 01:22:09;;;;;;;1.25;1.15;;;;;;;;;;1258587;23;20054;-76
2024/02/17 01:22:40;;;;;;;6.75;2.70;;;;;;;;;;1264299;23;20012;-76
2024/02/17 01:23:11;;;;;;;2.17;1.92;;;;;;;;;;1258485;23;20006;-76
2024/02/17 01:23:41;;;;;;;1.05;1.05;;;;;;;;;;1258649;23;20017;-76
2024/02/17 01:24:12;;;;;;;2.78;1.55;;;;;;;;;;1252811;23;20007;-76
2024/02/17 01:24:42;;;;;;;0.95;0.95;;;;;;;;;;1252500;23;20007;-76
2024/02/17 01:25:13;;;;;;;13.15;2.22;;;;;;;;;;1258561;23;20014;-76
2024/02/17 01:25:43;;;;;;;4.38;1.67;;;;;;;;;;1258737;23;20014;-76
2024/02/17 01:26:14;;;;;;;0.70;0.55;;;;;;;;;;1271514;23;20017;-76
2024/02/17 01:26:44;;;;;;;5.57;2.30;;;;;;;;;;1268367;23;20002;-76
2024/02/17 01:27:15;;;;;;;0.22;0.22;;;;;;;;;;1267875;23;20009;-76
2024/02/17 01:27:47;;;;;;;3.10;1.58;;;;;;;;;;1259238;23;20233;-76
2024/02/17 01:28:18;;;;;;;0.55;0.55;;;;;;;;;;1258376;23;20442;-76
2024/02/17 01:28:48;;;;;;;0.85;0.85;;;;;;;;;;1257961;23;20430;-76
2024/02/17 01:29:19;;;;;;;2.15;1.90;;;;;;;;;;1265011;23;20458;-76
2024/02/17 01:29:49;;;;;;;0.30;0.30;;;;;;;;;;1270875;23;20009;-76
2024/02/17 01:30:20;;;;;;;1.75;1.63;;;;;;;;;;1270842;23;20008;-76
2024/02/17 01:30:50;;;;;;;1.25;1.15;;;;;;;;;;1270328;23;20092;-76
2024/02/17 01:31:20;;;;;;;5.03;1.95;;;;;;;;;;1270519;22;20315;-76
2024/02/17 01:31:53;;;;;;;0.90;0.80;;;;;;;;;;1271013;22;20013;-76
2024/02/17 01:32:24;;;;;;;5.40;2.35;;;;;;;;;;1263983;23;20120;-76
2024/02/17 01:32:54;;;;;;;11.73;2.15;;;;;;;;;;1264032;23;20342;-76
2024/02/17 01:33:25;;;;;;;0.68;0.68;;;;;;;;;;1263444;23;20781;-76
2024/02/17 01:33:55;;;;;;;0.45;0.45;;;;;;;;;;1262578;23;20013;-76
2024/02/17 01:34:26;;;;;;;3.33;1.60;;;;;;;;;;1270351;23;20092;-76
2024/02/17 01:34:56;;;;;;;0.93;0.93;;;;;;;;;;1270478;22;20005;-76
2024/02/17 01:35:27;;;;;;;3.30;1.55;;;;;;;;;;1270512;23;20009;-76
2024/02/17 01:35:57;;;;;;;0.68;0.68;;;;;;;;;;1264676;23;20012;-76
2024/02/17 01:36:28;;;;;;;0.85;0.85;;;;;;;;;;1264283;23;20120;-76
2024/02/17 01:36:58;;;;;;;1.58;1.48;;;;;;;;;;1258502;23;20334;-76
2024/02/17 01:37:29;;;;;;;0.43;0.43;;;;;;;;;;1249759;23;20010;-76
2024/02/17 01:38:02;;;;;;;1.17;1.13;;;;;;;;;;1257709;23;20006;-76
2024/02/17 01:38:32;;;;;;;1.33;1.30;;;;;;;;;;1259103;23;20077;-76
2024/02/17 01:39:04;;;;;;;0.40;0.40;;;;;;;;;;1265114;23;20005;-76
2024/02/17 01:39:35;;;;;;;1.60;1.50;;;;;;;;;;1264379;23;20002;-76
2024/02/17 01:40:06;;;;;;;0.95;0.95;;;;;;;;;;1263664;23;20097;-76
2024/02/17 01:40:36;;;;;;;0.70;0.70;;;;;;;;;;1264165;23;20002;-76
2024/02/17 01:41:07;;;;;;;3.17;1.75;;;;;;;;;;1263979;23;20406;-76
2024/02/17 01:41:37;;;;;;;1.02;1.02;;;;;;;;;;1264331;23;20008;-76
2024/02/17 01:42:07;;;;;;;1.58;0.93;;;;;;;;;;1270329;22;20010;-76
2024/02/17 01:42:38;;;;;;;0.30;0.30;;;;;;;;;;1271016;22;20369;-76
2024/02/17 01:43:08;;;;;;;5.45;3.22;;;;;;;;;;1271163;22;20010;-76
2024/02/17 01:43:39;;;;;;;0.73;0.73;;;;;;;;;;1264142;23;20040;-76
2024/02/17 01:44:10;;;;;;;1.15;1.00;;;;;;;;;;1264098;23;20006;-76
2024/02/17 01:44:40;;;;;;;2.85;1.65;;;;;;;;;;1264319;23;20010;-76
2024/02/17 01:45:11;;;;;;;0.90;0.77;;;;;;;;;;1264477;23;20124;-76
2024/02/17 01:45:41;;;;;;;1.02;1.02;;;;;;;;;;1270916;22;20066;-76
2024/02/17 01:46:12;;;;;;;1.55;1.15;;;;;;;;;;1264073;23;20084;-76
2024/02/17 01:46:43;;;;;;;1.67;1.58;;;;;;;;;;1264315;23;20311;-76
2024/02/17 01:47:13;;;;;;;2.28;1.70;;;;;;;;;;1257803;23;20478;-76
2024/02/17 01:47:44;;;;;;;1.60;1.50;;;;;;;;;;1257646;23;20006;-76
2024/02/17 01:48:15;;;;;;;12.00;1.90;;;;;;;;;;1258436;23;20109;-76
2024/02/17 01:48:46;;;;;;;0.80;0.80;;;;;;;;;;1264596;23;20404;-76
2024/02/17 01:49:16;;;;;;;1.48;1.38;;;;;;;;;;1269548;23;20005;-76
2024/02/17 01:49:47;;;;;;;2.15;1.98;;;;;;;;;;1270469;23;20005;-76
2024/02/17 01:50:17;;;;;;;2.05;1.83;;;;;;;;;;1270901;23;20457;-76
2024/02/17 01:50:48;;;;;;;0.30;0.30;;;;;;;;;;1270516;23;20524;-76
2024/02/17 01:51:19;;;;;;;1.20;1.15;;;;;;;;;;1264210;23;20061;-76
2024/02/17 01:51:49;;;;;;;1.45;1.33;;;;;;;;;;1263673;23;20120;-76
2024/02/17 01:52:20;;;;;;;0.95;0.95;;;;;;;;;;1263524;23;20076;-76
2024/02/17 01:52:51;;;;;;;1.00;1.00;;;;;;;;;;1264915;23;20354;-76
2024/02/17 01:53:22;;;;;;;0.40;0.40;;;;;;;;;;1262793;23;20064;-76
2024/02/17 01:53:54;;;;;;;0.70;0.70;;;;;;;;;;1263192;23;20404;-76
2024/02/17 01:54:24;;;;;;;0.22;0.22;;;;;;;;;;1264415;23;20028;-76
2024/02/17 01:54:55;;;;;;;2.63;1.75;;;;;;;;;;1264411;23;20438;-76
2024/02/17 01:55:26;;;;;;;1.58;1.48;;;;;;;;;;1270288;23;20011;-76
2024/02/17 01:55:57;;;;;;;2.45;1.65;;;;;;;;;;1270774;23;20013;-75
2024/02/17 01:56:27;;;;;;;1.38;1.33;;;;;;;;;;1270541;23;20346;-76
2024/02/17 01:56:59;;;;;;;5.00;0.68;;;;;;;;;;1264357;23;20453;-75
2024/02/17 01:57:30;;;;;;;0.95;0.95;;;;;;;;;;1257798;23;20053;-75
2024/02/17 01:58:00;;;;;;;1.02;1.00;;;;;;;;;;1258276;23;20006;-75
2024/02/17 01:58:31;;;;;;;0.70;0.70;;;;;;;;;;1258408;23;20450;-76
2024/02/17 01:59:02;;;;;;;0.20;0.20;;;;;;;;;;1264777;23;20399;-75
2024/02/17 01:59:33;;;;;;;0.68;0.68;;;;;;;;;;1270942;23;20264;-76
2024/02/17 02:00:04;;;;;;;0.55;0.55;;;;;;;;;;1270892;23;20005;-75
2024/02/17 02:00:35;;;;;;;0.50;0.50;;;;;;;;;;1270995;23;20005;-75
2024/02/17 02:01:05;;;;;;;3.70;2.55;;;;;;;;;;1271149;22;21128;-75
2024/02/17 02:01:37;;;;;;;0.73;0.73;;;;;;;;;;1270623;23;20012;-75
2024/02/17 02:02:08;;;;;;;0.57;0.57;;;;;;;;;;1270802;23;20006;-75
2024/02/17 02:02:41;;;;;;;4.90;3.45;;;;;;;;;;1264154;23;20343;-75
2024/02/17 02:03:11;;;;;;;4.22;2.38;;;;;;;;;;1263957;23;20084;-75
2024/02/17 02:03:42;;;;;;;2.45;1.98;;;;;;;;;;1264163;23;20366;-75
2024/02/17 02:04:12;;;;;;;0.20;0.20;;;;;;;;;;1264500;23;20002;-75
2024/02/17 02:04:43;;;;;;;2.40;2.28;;;;;;;;;;1270681;23;20453;-75
2024/02/17 02:05:14;;;;;;;0.35;0.35;;;;;;;;;;1270433;23;20032;-75
2024/02/17 02:05:45;;;;;;;4.47;1.75;;;;;;;;;;1270388;23;20025;-76
2024/02/17 02:06:20;;;;;;;0.75;0.75;;;;;;;;;;1264258;23;20041;-75
2024/02/17 02:06:51;;;;;;;4.95;1.42;;;;;;;;;;1264377;23;20085;-76
2024/02/17 02:07:25;;;;;;;1.75;1.55;;;;;;;;;;1258064;23;20010;-76
2024/02/17 02:07:57;;;;;;;0.35;0.35;;;;;;;;;;1254080;23;20011;-76
2024/02/17 02:08:28;;;;;;;3.67;2.25;;;;;;;;;;1252319;23;20006;-76
2024/02/17 02:08:58;;;;;;;2.45;1.00;;;;;;;;;;1247354;23;20177;-76
2024/02/17 02:09:29;;;;;;;0.60;0.60;;;;;;;;;;1252762;23;20049;-76
2024/02/17 02:09:59;;;;;;;1.15;1.10;;;;;;;;;;1258439;23;20378;-76
2024/02/17 02:10:30;;;;;;;3.15;1.58;;;;;;;;;;1264074;23;20008;-76
2024/02/17 02:11:00;;;;;;;1.85;1.75;;;;;;;;;;1264436;23;20006;-76
2024/02/17 02:11:31;;;;;;;14.60;2.67;;;;;;;;;;1264448;23;20065;-76
2024/02/17 02:12:02;;;;;;;8.38;2.63;;;;;;;;;;1264066;23;20010;-76
2024/02/17 02:12:32;;;;;;;1.52;1.42;;;;;;;;;;1264013;23;20386;-76
2024/02/17 02:13:03;;;;;;;2.92;2.00;;;;;;;;;;1271110;22;20473;-76
2024/02/17 02:13:33;;;;;;;3.80;2.15;;;;;;;;;;1270743;23;20013;-77
2024/02/17 02:14:11;;;;;;;13.40;4.05;;;;;;;;;;1270619;23;20028;-77
2024/02/17 02:14:42;;;;;;;0.32;0.32;;;;;;;;;;1264229;23;20012;-77
2024/02/17 02:15:13;;;;;;;1.08;1.05;;;;;;;;;;1257613;23;20468;-77
2024/02/17 02:15:43;;;;;;;0.65;0.65;;;;;;;;;;1258127;23;20013;-77
2024/02/17 02:16:17;;;;;;;1.95;1.85;;;;;;;;;;1258209;23;20006;-77
2024/02/17 02:16:48;;;;;;;1.00;0.98;;;;;;;;;;1265120;23;20010;-77
2024/02/17 02:17:18;;;;;;;0.90;0.70;;;;;;;;;;1270563;23;20009;-77
2024/02/17 02:17:49;;;;;;;0.20;0.20;;;;;;;;;;1263390;23;20539;-77
2024/02/17 02:18:19;;;;;;;0.35;0.35;;;;;;;;;;1258294;23;20006;-76
2024/02/17 02:18:50;;;;;;;1.17;1.08;;;;;;;;;;1252482;23;20006;-77
2024/02/17 02:19:21;;;;;;;0.40;0.40;;;;;;;;;;1252294;23;20007;-77
2024/02/17 02:19:52;;;;;;;0.40;0.40;;;;;;;;;;1258118;23;20093;-77
2024/02/17 02:20:25;;;;;;;0.73;0.73;;;;;;;;;;1258621;23;20006;-77
2024/02/17 02:20:55;;;;;;;2.00;1.73;;;;;;;;;;1263686;23;20013;-77
2024/02/17 02:21:26;;;;;;;0.68;0.68;;;;;;;;;;1258287;23;20009;-77
2024/02/17 02:21:56;;;;;;;0.22;0.22;;;;;;;;;;1252975;23;20336;-77
2024/02/17 02:22:30;;;;;;;0.57;0.57;;;;;;;;;;1257969;23;20426;-77
2024/02/17 02:23:01;;;;;;;2.15;1.98;;;;;;;;;;1253065;23;20011;-77
2024/02/17 02:23:34;;;;;;;1.90;1.60;;;;;;;;;;1253124;23;20056;-77
2024/02/17 02:24:05;;;;;;;3.40;1.55;;;;;;;;;;1252269;23;20006;-77
2024/02/17 02:24:36;;;;;;;1.55;1.45;;;;;;;;;;1247638;23;20008;-77
2024/02/17 02:25:13;;;;;;;1.65;1.50;;;;;;;;;;1252630;23;20006;-77
2024/02/17 02:25:51;;;;;;;1.27;1.23;;;;;;;;;;1254002;23;20002;-77
2024/02/17 02:26:23;;;;;;;0.63;0.63;;;;;;;;;;1251916;23;20003;-77
2024/02/17 02:26:54;;;;;;;0.28;0.28;;;;;;;;;;1255323;23;20011;-77
2024/02/17 02:27:25;;;;;;;2.38;2.00;;;;;;;;;;1254218;23;20045;-77
2024/02/17 02:27:56;;;;;;;1.27;1.17;;;;;;;;;;1255535;23;20113;-77
2024/02/17 02:28:26;;;;;;;0.80;0.80;;;;;;;;;;1252106;23;20363;-77
2024/02/17 02:28:57;;;;;;;0.40;0.40;;;;;;;;;;1252726;23;20006;-77
2024/02/17 02:29:28;;;;;;;4.20;2.70;;;;;;;;;;1258113;23;20336;-77
2024/02/17 02:29:59;;;;;;;2.47;2.30;;;;;;;;;;1258609;23;20006;-76
2024/02/17 02:30:29;;;;;;;2.25;2.05;;;;;;;;;;1258350;23;20041;-77
2024/02/17 02:31:00;;;;;;;0.30;0.30;;;;;;;;;;1258597;23;20105;-77
2024/02/17 02:31:30;;;;;;;0.70;0.70;;;;;;;;;;1252253;23;20007;-77
2024/02/17 02:32:02;;;;;;;2.15;1.38;;;;;;;;;;1251735;23;20475;-77
2024/02/17 02:32:36;;;;;;;1.77;1.67;;;;;;;;;;1251112;23;20006;-77
2024/02/17 02:33:07;;;;;;;3.40;2.22;;;;;;;;;;1278680;23;20064;-77
2024/02/17 02:33:37;;;;;;;1.52;1.45;;;;;;;;;;1277372;23;20088;-77
2024/02/17 02:34:08;;;;;;;2.17;1.50;;;;;;;;;;1271231;23;20092;-77
2024/02/17 02:34:39;;;;;;;1.85;1.75;;;;;;;;;;1276715;23;20001;-77
2024/02/17 02:35:10;;;;;;;0.90;0.90;;;;;;;;;;1245283;23;20102;-77
2024/02/17 02:35:40;;;;;;;0.98;0.75;;;;;;;;;;1246788;23;20058;-77
2024/02/17 02:36:11;;;;;;;1.55;1.27;;;;;;;;;;1252491;23;20438;-77
2024/02/17 02:36:42;;;;;;;1.88;1.77;;;;;;;;;;1252619;23;20424;-77
2024/02/17 02:37:13;;;;;;;0.68;0.68;;;;;;;;;;1252192;23;20007;-77
2024/02/17 02:37:45;;;;;;;0.88;0.88;;;;;;;;;;1251358;23;20185;-77
2024/02/17 02:38:17;;;;;;;0.63;0.63;;;;;;;;;;1251578;23;20007;-77
2024/02/17 02:38:49;;;;;;;3.60;1.73;;;;;;;;;;1253577;23;20045;-77
2024/02/17 02:39:21;;;;;;;2.38;1.38;;;;;;;;;;1258265;23;20006;-77
2024/02/17 02:39:56;;;;;;;9.50;2.22;;;;;;;;;;1257392;23;20006;-77
2024/02/17 02:40:27;;;;;;;1.10;0.60;;;;;;;;;;1252356;23;20002;-76
2024/02/17 02:40:57;;;;;;;2.03;1.92;;;;;;;;;;1252477;23;20007;-76
2024/02/17 02:41:29;;;;;;;2.28;2.15;;;;;;;;;;1253112;23;20104;-76
2024/02/17 02:42:01;;;;;;;9.82;3.25;;;;;;;;;;1257160;23;20010;-77
2024/02/17 02:42:32;;;;;;;2.65;2.53;;;;;;;;;;1257733;23;20010;-77
2024/02/17 02:43:02;;;;;;;6.22;1.67;;;;;;;;;;1251623;23;20011;-77
2024/02/17 02:43:33;;;;;;;12.00;1.30;;;;;;;;;;1250614;23;20007;-76
2024/02/17 02:44:04;;;;;;;1.30;1.10;;;;;;;;;;1239735;23;20019;-76
2024/02/17 02:44:34;;;;;;;1.35;1.15;;;;;;;;;;1240139;23;20004;-77
2024/02/17 02:45:06;;;;;;;3.13;1.63;;;;;;;;;;1245371;23;20007;-76
2024/02/17 02:45:38;;;;;;;2.97;2.60;;;;;;;;;;1245435;23;20004;-76
2024/02/17 02:46:09;;;;;;;0.70;0.68;;;;;;;;;;1246320;23;20029;-77
2024/02/17 02:46:40;;;;;;;1.58;1.20;;;;;;;;;;1245746;23;20022;-77
2024/02/17 02:47:14;;;;;;;0.63;0.63;;;;;;;;;;1251423;23;20006;-76
2024/02/17 02:47:46;;;;;;;1.13;1.05;;;;;;;;;;1252872;23;20082;-76
2024/02/17 02:48:17;;;;;;;2.17;2.08;;;;;;;;;;1253065;23;20003;-76
2024/02/17 02:48:48;;;;;;;1.85;1.67;;;;;;;;;;1250626;23;20459;-76
2024/02/17 02:49:19;;;;;;;2.70;2.30;;;;;;;;;;1244897;23;20471;-76
2024/02/17 02:49:50;;;;;;;3.42;0.80;;;;;;;;;;1240013;23;20007;-77
2024/02/17 02:50:21;;;;;;;0.65;0.65;;;;;;;;;;1246571;23;20074;-77
2024/02/17 02:50:53;;;;;;;1.08;1.05;;;;;;;;;;1252529;23;20007;-77
2024/02/17 02:51:24;;;;;;;0.57;0.57;;;;;;;;;;1258841;23;20463;-76
2024/02/17 02:51:55;;;;;;;2.28;1.67;;;;;;;;;;1258349;23;20014;-77
2024/02/17 02:52:26;;;;;;;0.68;0.68;;;;;;;;;;1251320;23;20089;-76
2024/02/17 02:52:56;;;;;;;3.22;1.55;;;;;;;;;;1246100;23;20098;-77
2024/02/17 02:53:27;;;;;;;1.83;0.65;;;;;;;;;;1247532;23;20083;-77
2024/02/17 02:53:58;;;;;;;2.28;2.10;;;;;;;;;;1249298;23;20007;-76
2024/02/17 02:54:29;;;;;;;2.58;1.80;;;;;;;;;;1255221;23;20091;-76
2024/02/17 02:54:59;;;;;;;2.83;2.58;;;;;;;;;;1255565;23;20017;-77
2024/02/17 02:55:30;;;;;;;0.98;0.98;;;;;;;;;;1261147;23;20028;-77
2024/02/17 02:56:01;;;;;;;5.55;2.10;;;;;;;;;;1258876;23;20473;-77
2024/02/17 02:56:32;;;;;;;3.03;2.72;;;;;;;;;;1258325;23;20006;-77
2024/02/17 02:57:02;;;;;;;1.38;1.27;;;;;;;;;;1252710;23;20507;-77
2024/02/17 02:57:33;;;;;;;5.22;0.85;;;;;;;;;;1246553;23;20057;-77
2024/02/17 02:58:04;;;;;;;2.80;1.48;;;;;;;;;;1245339;23;20039;-76
2024/02/17 02:58:35;;;;;;;2.35;1.90;;;;;;;;;;1252360;23;20011;-77
2024/02/17 02:59:06;;;;;;;3.92;1.48;;;;;;;;;;1252435;23;20007;-78
2024/02/17 02:59:37;;;;;;;5.20;3.22;;;;;;;;;;1257939;23;20017;-78
2024/02/17 03:00:08;;;;;;;16.75;4.32;;;;;;;;;;1251718;23;20109;-77
2024/02/17 03:00:38;;;;;;;1.48;1.20;;;;;;;;;;1257696;23;20085;-77
2024/02/17 03:01:09;;;;;;;3.90;1.45;;;;;;;;;;1258403;23;20006;-76
2024/02/17 03:01:42;;;;;;;4.90;3.13;;;;;;;;;;1251904;23;20482;-76
2024/02/17 03:02:13;;;;;;;2.92;1.52;;;;;;;;;;1250431;23;20432;-76
2024/02/17 03:02:45;;;;;;;0.10;0.10;;;;;;;;;;1245642;23;20011;-77
2024/02/17 03:03:18;;;;;;;6.00;4.20;;;;;;;;;;1247364;23;20007;-77
2024/02/17 03:03:50;;;;;;;1.23;1.20;;;;;;;;;;1252900;23;20010;-77
2024/02/17 03:04:21;;;;;;;1.05;0.70;;;;;;;;;;1257585;23;20011;-77
2024/02/17 03:04:52;;;;;;;3.58;1.45;;;;;;;;;;1258058;23;20040;-76
2024/02/17 03:05:23;;;;;;;6.85;0.98;;;;;;;;;;1251109;23;20007;-77